Time;durP1;ratioP1;P1;durP2;ratioP2;P2;SDS_P1;SDS_P2;PMS_P1;PMS_P2;Temp;Humidity;BMP_temperature;BMP_pressure;BME280_temperature;BME280_humidity;BME280_pressure;Samples;Min_cycle;Max_cycle;Signal;HPM_P1;HPM_P2
2023/06/12 00:01:28;;;;;;;6.47;2.33;;;;;;;;;;5085133;28;20043;-70
2023/06/12 00:03:57;;;;;;;10.65;2.67;;;;;;;;;;5083975;28;20083;-70
2023/06/12 00:06:28;;;;;;;9.13;2.78;;;;;;;;;;5102044;27;20055;-70
2023/06/12 00:08:54;;;;;;;7.30;2.83;;;;;;;;;;5101490;28;20035;-69
2023/06/12 00:11:21;;;;;;;6.50;2.45;;;;;;;;;;5084841;28;20040;-70
2023/06/12 00:13:54;;;;;;;5.05;2.30;;;;;;;;;;5104507;28;20487;-70
2023/06/12 00:16:24;;;;;;;5.53;2.67;;;;;;;;;;5122466;28;20117;-69
2023/06/12 00:18:51;;;;;;;6.88;3.00;;;;;;;;;;5085042;28;20123;-70
2023/06/12 00:21:19;;;;;;;6.43;2.33;;;;;;;;;;5088380;28;20499;-70
2023/06/12 00:23:49;;;;;;;10.25;2.88;;;;;;;;;;5105714;28;20479;-70
2023/06/12 00:26:15;;;;;;;5.72;2.88;;;;;;;;;;5123069;28;20039;-69
2023/06/12 00:28:41;;;;;;;9.57;2.78;;;;;;;;;;5124383;27;20486;-70
2023/06/12 00:31:08;;;;;;;8.23;2.70;;;;;;;;;;5107358;28;20048;-69
2023/06/12 00:33:34;;;;;;;8.00;2.70;;;;;;;;;;5106909;28;20036;-70
2023/06/12 00:36:03;;;;;;;6.95;2.53;;;;;;;;;;5110697;28;20043;-70
2023/06/12 00:38:37;;;;;;;12.95;2.88;;;;;;;;;;5109078;28;20055;-69
2023/06/12 00:41:03;;;;;;;4.78;2.60;;;;;;;;;;5109964;28;20059;-69
2023/06/12 00:43:30;;;;;;;5.18;2.50;;;;;;;;;;5112391;27;20047;-69
2023/06/12 00:45:56;;;;;;;11.70;2.88;;;;;;;;;;5112062;28;20035;-69
2023/06/12 00:48:22;;;;;;;8.80;2.72;;;;;;;;;;5111385;27;20207;-69
2023/06/12 00:50:49;;;;;;;9.35;3.00;;;;;;;;;;5112354;28;20039;-69
2023/06/12 00:53:15;;;;;;;10.95;2.75;;;;;;;;;;5126195;27;20062;-69
2023/06/12 00:55:42;;;;;;;5.68;2.50;;;;;;;;;;5112476;28;20047;-69
2023/06/12 00:58:08;;;;;;;4.18;2.00;;;;;;;;;;5107333;28;20448;-69
2023/06/12 01:00:38;;;;;;;6.07;2.88;;;;;;;;;;5109292;28;20043;-69
2023/06/12 01:03:06;;;;;;;5.68;2.33;;;;;;;;;;5108362;28;20440;-69
2023/06/12 01:05:43;;;;;;;7.35;2.17;;;;;;;;;;5110527;28;20081;-69
2023/06/12 01:08:39;;;;;;;8.13;3.40;;;;;;;;;;5107516;28;20048;-69
2023/06/12 01:11:12;;;;;;;9.73;2.60;;;;;;;;;;5103828;28;20044;-69
2023/06/12 01:13:39;;;;;;;8.75;2.45;;;;;;;;;;5107975;27;20545;-69
2023/06/12 01:16:11;;;;;;;8.60;2.50;;;;;;;;;;5110314;28;20181;-69
2023/06/12 01:18:41;;;;;;;7.00;2.40;;;;;;;;;;5093484;28;20652;-69
2023/06/12 01:21:13;;;;;;;7.70;2.63;;;;;;;;;;5108936;28;20115;-69
2023/06/12 01:23:39;;;;;;;5.90;2.42;;;;;;;;;;5111488;28;20044;-69
2023/06/12 01:26:26;;;;;;;10.43;3.35;;;;;;;;;;5109142;27;20370;-69
2023/06/12 01:29:04;;;;;;;9.30;2.60;;;;;;;;;;5108215;28;20071;-69
2023/06/12 01:31:56;;;;;;;9.88;2.38;;;;;;;;;;5108592;27;20039;-69
2023/06/12 01:34:26;;;;;;;7.25;2.90;;;;;;;;;;5109447;28;20073;-69
2023/06/12 01:37:15;;;;;;;5.63;2.55;;;;;;;;;;5110885;28;20077;-69
2023/06/12 01:39:47;;;;;;;7.13;3.40;;;;;;;;;;5081710;28;20484;-69
2023/06/12 01:42:17;;;;;;;6.43;2.58;;;;;;;;;;5109097;28;20043;-69
2023/06/12 01:44:46;;;;;;;7.47;2.65;;;;;;;;;;5143597;27;20044;-69
2023/06/12 01:47:15;;;;;;;5.32;2.40;;;;;;;;;;5108050;28;20468;-69
2023/06/12 01:49:41;;;;;;;6.68;2.65;;;;;;;;;;5106033;28;20054;-69
2023/06/12 01:52:13;;;;;;;7.47;3.13;;;;;;;;;;5109769;28;20362;-69
2023/06/12 01:54:49;;;;;;;6.63;3.00;;;;;;;;;;5110585;28;20088;-69
2023/06/12 01:57:19;;;;;;;7.28;2.50;;;;;;;;;;5143141;27;20433;-69
2023/06/12 01:59:46;;;;;;;7.93;2.85;;;;;;;;;;5143610;27;20047;-69
2023/06/12 02:02:13;;;;;;;10.02;2.63;;;;;;;;;;5108326;28;20039;-69
2023/06/12 02:04:39;;;;;;;7.75;2.70;;;;;;;;;;5107344;28;20039;-69
2023/06/12 02:07:09;;;;;;;5.82;2.50;;;;;;;;;;5112023;28;20372;-69
2023/06/12 02:09:36;;;;;;;6.78;2.70;;;;;;;;;;5108498;28;20036;-69
2023/06/12 02:12:02;;;;;;;6.40;2.78;;;;;;;;;;5104018;28;20043;-69
2023/06/12 02:14:29;;;;;;;6.80;3.30;;;;;;;;;;5106907;28;20108;-70
2023/06/12 02:17:05;;;;;;;7.32;3.00;;;;;;;;;;5107059;27;20062;-69
2023/06/12 02:19:34;;;;;;;5.88;3.03;;;;;;;;;;5108357;28;20487;-69
2023/06/12 02:22:01;;;;;;;8.02;2.58;;;;;;;;;;5091985;28;20046;-69
2023/06/12 02:24:37;;;;;;;9.10;2.58;;;;;;;;;;5107986;28;20101;-69
2023/06/12 02:27:10;;;;;;;9.05;3.30;;;;;;;;;;5109572;28;20035;-69
2023/06/12 02:29:39;;;;;;;9.02;2.95;;;;;;;;;;5108936;28;20071;-69
2023/06/12 02:32:08;;;;;;;6.35;3.10;;;;;;;;;;5104575;28;20059;-69
2023/06/12 02:34:36;;;;;;;9.55;3.10;;;;;;;;;;5110904;28;20134;-69
2023/06/12 02:37:08;;;;;;;8.25;2.90;;;;;;;;;;5108739;28;20101;-69
2023/06/12 02:39:35;;;;;;;7.03;2.80;;;;;;;;;;5109919;28;20040;-69
2023/06/12 02:42:01;;;;;;;5.00;2.65;;;;;;;;;;5106859;28;20048;-69
2023/06/12 02:44:27;;;;;;;8.20;3.28;;;;;;;;;;5110163;28;20131;-69
2023/06/12 02:46:55;;;;;;;7.72;3.35;;;;;;;;;;5108891;27;20036;-69
2023/06/12 02:49:22;;;;;;;8.25;3.13;;;;;;;;;;5092149;28;20099;-69
2023/06/12 02:51:48;;;;;;;8.10;3.15;;;;;;;;;;5111493;28;20048;-69
2023/06/12 02:54:16;;;;;;;7.40;2.42;;;;;;;;;;5108771;28;20422;-69
2023/06/12 02:56:44;;;;;;;6.40;3.10;;;;;;;;;;5108900;28;20208;-69
2023/06/12 02:59:12;;;;;;;10.95;3.30;;;;;;;;;;5104279;28;20055;-69
2023/06/12 03:01:43;;;;;;;10.07;2.92;;;;;;;;;;5107077;28;20055;-69
2023/06/12 03:04:11;;;;;;;6.20;3.22;;;;;;;;;;5108772;28;20486;-69
2023/06/12 03:06:38;;;;;;;7.47;2.72;;;;;;;;;;5107707;28;20479;-69
2023/06/12 03:09:05;;;;;;;6.43;3.00;;;;;;;;;;5109555;28;20469;-69
2023/06/12 03:11:34;;;;;;;8.90;2.97;;;;;;;;;;5107499;28;20047;-69
2023/06/12 03:14:00;;;;;;;10.85;3.22;;;;;;;;;;5109144;28;20433;-69
2023/06/12 03:16:33;;;;;;;7.63;2.97;;;;;;;;;;5105952;27;20047;-69
2023/06/12 03:18:59;;;;;;;8.02;3.00;;;;;;;;;;5102723;27;20040;-70
2023/06/12 03:21:31;;;;;;;5.20;2.92;;;;;;;;;;5105129;28;20039;-69
2023/06/12 03:23:58;;;;;;;7.55;2.78;;;;;;;;;;5109531;28;20436;-69
2023/06/12 03:26:30;;;;;;;8.23;2.90;;;;;;;;;;5107784;28;20092;-69
2023/06/12 03:29:12;;;;;;;6.38;2.83;;;;;;;;;;5104403;28;20043;-69
2023/06/12 03:31:39;;;;;;;8.93;3.42;;;;;;;;;;5106273;27;20154;-69
2023/06/12 03:34:08;;;;;;;9.75;2.95;;;;;;;;;;5109794;28;20035;-69
2023/06/12 03:36:37;;;;;;;7.88;3.03;;;;;;;;;;5108444;28;20051;-69
2023/06/12 03:39:04;;;;;;;7.97;2.97;;;;;;;;;;5109766;28;20116;-69
2023/06/12 03:41:31;;;;;;;8.57;3.40;;;;;;;;;;5109472;28;20050;-69
2023/06/12 03:43:58;;;;;;;8.35;3.63;;;;;;;;;;5108128;28;20165;-69
2023/06/12 03:46:24;;;;;;;6.65;3.33;;;;;;;;;;5089720;28;20039;-69
2023/06/12 03:48:54;;;;;;;10.30;3.30;;;;;;;;;;5106620;27;20046;-69
2023/06/12 03:51:21;;;;;;;6.85;3.00;;;;;;;;;;5105680;28;20050;-69
2023/06/12 03:53:47;;;;;;;8.90;3.50;;;;;;;;;;5108142;28;20436;-69
2023/06/12 03:56:14;;;;;;;7.13;3.58;;;;;;;;;;5109666;28;20047;-69
2023/06/12 03:58:40;;;;;;;6.18;2.83;;;;;;;;;;5107093;28;20063;-69
2023/06/12 04:01:10;;;;;;;5.65;3.00;;;;;;;;;;5107011;28;20155;-69
2023/06/12 04:03:38;;;;;;;8.70;3.08;;;;;;;;;;5140578;27;20505;-69
2023/06/12 04:06:05;;;;;;;7.07;3.13;;;;;;;;;;5109206;28;20035;-69
2023/06/12 04:08:36;;;;;;;10.43;3.15;;;;;;;;;;5108114;28;20184;-69
2023/06/12 04:11:03;;;;;;;8.38;3.25;;;;;;;;;;5102353;28;20054;-69
2023/06/12 04:13:30;;;;;;;10.00;3.53;;;;;;;;;;5102470;28;20066;-69
2023/06/12 04:15:57;;;;;;;9.07;4.18;;;;;;;;;;5107139;28;20036;-69
2023/06/12 04:18:24;;;;;;;8.07;2.97;;;;;;;;;;5104896;28;20043;-69
2023/06/12 04:20:57;;;;;;;7.85;3.08;;;;;;;;;;5106346;28;20066;-69
2023/06/12 04:23:29;;;;;;;7.82;3.00;;;;;;;;;;5108273;28;20399;-69
2023/06/12 04:26:04;;;;;;;6.40;3.45;;;;;;;;;;5102623;28;20136;-69
2023/06/12 04:28:34;;;;;;;8.50;3.60;;;;;;;;;;5111104;28;20066;-69
2023/06/12 04:31:03;;;;;;;9.60;3.05;;;;;;;;;;5124936;28;20035;-69
2023/06/12 04:33:37;;;;;;;6.55;3.15;;;;;;;;;;5129303;28;20046;-69
2023/06/12 04:36:07;;;;;;;8.73;3.25;;;;;;;;;;5110642;28;20043;-69
2023/06/12 04:38:36;;;;;;;6.45;3.45;;;;;;;;;;5110319;28;20111;-69
2023/06/12 04:41:03;;;;;;;9.02;3.00;;;;;;;;;;5128265;28;20043;-69
2023/06/12 04:43:32;;;;;;;11.20;3.40;;;;;;;;;;5128273;27;20035;-69
2023/06/12 04:45:58;;;;;;;11.95;4.03;;;;;;;;;;5109125;28;20031;-69
2023/06/12 04:48:28;;;;;;;6.53;2.97;;;;;;;;;;5128199;27;21608;-69
2023/06/12 04:50:54;;;;;;;9.13;3.45;;;;;;;;;;5129643;28;20039;-71
2023/06/12 04:53:30;;;;;;;9.85;3.53;;;;;;;;;;5109396;27;20058;-69
2023/06/12 04:56:00;;;;;;;8.85;3.38;;;;;;;;;;5107089;28;20067;-66
2023/06/12 04:58:30;;;;;;;16.00;3.20;;;;;;;;;;5108008;28;20059;-69
2023/06/12 05:01:00;;;;;;;7.20;2.92;;;;;;;;;;5124682;27;20062;-69
2023/06/12 05:03:33;;;;;;;6.22;3.17;;;;;;;;;;5129880;28;20055;-70
2023/06/12 05:06:02;;;;;;;9.70;3.65;;;;;;;;;;5126099;28;20051;-70
2023/06/12 05:08:37;;;;;;;8.50;3.50;;;;;;;;;;5114263;28;20051;-69
2023/06/12 05:11:04;;;;;;;8.30;3.38;;;;;;;;;;5115156;28;20047;-69
2023/06/12 05:13:30;;;;;;;9.05;3.45;;;;;;;;;;5096933;28;20071;-69
2023/06/12 05:16:00;;;;;;;14.43;3.67;;;;;;;;;;5099109;28;20135;-67
2023/06/12 05:18:28;;;;;;;8.68;3.58;;;;;;;;;;5121438;28;20039;-67
2023/06/12 05:20:58;;;;;;;8.30;4.28;;;;;;;;;;5096079;28;20051;-67
2023/06/12 05:23:27;;;;;;;6.45;3.45;;;;;;;;;;5107126;27;20059;-66
2023/06/12 05:25:56;;;;;;;9.68;3.92;;;;;;;;;;5114788;27;20058;-66
2023/06/12 05:28:25;;;;;;;12.85;4.53;;;;;;;;;;5131678;27;20398;-66
2023/06/12 05:30:51;;;;;;;13.32;4.05;;;;;;;;;;5098879;28;20040;-66
2023/06/12 05:33:17;;;;;;;7.30;3.35;;;;;;;;;;5095186;28;20047;-64
2023/06/12 05:35:44;;;;;;;12.63;3.63;;;;;;;;;;5087127;28;20044;-67
2023/06/12 05:38:10;;;;;;;12.60;4.25;;;;;;;;;;5112426;27;20147;-67
2023/06/12 05:40:37;;;;;;;8.93;3.90;;;;;;;;;;5094582;28;20048;-67
2023/06/12 05:43:12;;;;;;;10.18;4.18;;;;;;;;;;5110336;28;20444;-66
2023/06/12 05:45:38;;;;;;;9.30;4.38;;;;;;;;;;5094323;28;20055;-67
2023/06/12 05:48:05;;;;;;;7.00;3.78;;;;;;;;;;5109527;27;20502;-66
2023/06/12 05:50:31;;;;;;;10.57;3.97;;;;;;;;;;5110117;28;20055;-66
2023/06/12 05:52:58;;;;;;;10.18;3.85;;;;;;;;;;5093697;28;20474;-67
2023/06/12 05:55:26;;;;;;;9.68;3.85;;;;;;;;;;5092928;28;20047;-67
2023/06/12 05:57:53;;;;;;;9.25;4.03;;;;;;;;;;5103740;28;20044;-67
2023/06/12 06:00:28;;;;;;;10.35;4.13;;;;;;;;;;5111912;28;20123;-66
2023/06/12 06:02:54;;;;;;;8.43;4.25;;;;;;;;;;5102518;28;20035;-66
2023/06/12 06:05:21;;;;;;;15.02;5.07;;;;;;;;;;5089608;28;20058;-66
2023/06/12 06:07:50;;;;;;;13.82;5.03;;;;;;;;;;5101609;28;20380;-66
2023/06/12 06:10:16;;;;;;;10.43;3.75;;;;;;;;;;5110718;28;20050;-66
2023/06/12 06:12:43;;;;;;;11.73;4.47;;;;;;;;;;5093375;28;20070;-66
2023/06/12 06:15:15;;;;;;;10.38;4.70;;;;;;;;;;5106088;28;20112;-73
2023/06/12 06:17:42;;;;;;;9.25;4.47;;;;;;;;;;5107379;28;20387;-66
2023/06/12 06:20:13;;;;;;;9.13;4.18;;;;;;;;;;5111633;28;20116;-66
2023/06/12 06:22:43;;;;;;;12.25;4.35;;;;;;;;;;5097617;27;20071;-66
2023/06/12 06:25:09;;;;;;;10.85;4.22;;;;;;;;;;5095160;27;20089;-66
2023/06/12 06:27:36;;;;;;;7.95;4.00;;;;;;;;;;5083235;28;20048;-67
2023/06/12 06:30:05;;;;;;;11.02;4.00;;;;;;;;;;5096963;28;20075;-67
2023/06/12 06:32:35;;;;;;;9.45;4.38;;;;;;;;;;5099671;27;20051;-66
2023/06/12 06:35:02;;;;;;;8.55;4.25;;;;;;;;;;5100916;28;20514;-66
2023/06/12 06:37:31;;;;;;;13.85;4.45;;;;;;;;;;5110141;28;20358;-66
2023/06/12 06:39:58;;;;;;;13.25;5.10;;;;;;;;;;5091924;28;20052;-66
2023/06/12 06:42:24;;;;;;;8.32;4.47;;;;;;;;;;5111436;28;20039;-66
2023/06/12 06:44:51;;;;;;;9.85;4.47;;;;;;;;;;5103379;28;20502;-66
2023/06/12 06:47:17;;;;;;;16.67;8.02;;;;;;;;;;5107211;28;20058;-66
2023/06/12 06:49:49;;;;;;;10.20;4.88;;;;;;;;;;5111273;28;20032;-65
2023/06/12 06:52:22;;;;;;;11.52;5.35;;;;;;;;;;5092017;28;20520;-66
2023/06/12 06:54:48;;;;;;;7.25;4.50;;;;;;;;;;5089075;28;20046;-67
2023/06/12 06:57:15;;;;;;;9.43;4.53;;;;;;;;;;5104355;28;20136;-65
2023/06/12 06:59:41;;;;;;;10.23;5.03;;;;;;;;;;5109729;28;20474;-66
2023/06/12 07:02:08;;;;;;;11.00;4.78;;;;;;;;;;5091012;28;20066;-66
2023/06/12 07:04:37;;;;;;;8.55;4.65;;;;;;;;;;5092022;28;20079;-66
2023/06/12 07:07:03;;;;;;;8.25;4.28;;;;;;;;;;5087194;28;20056;-65
2023/06/12 07:09:30;;;;;;;12.07;4.07;;;;;;;;;;5110443;28;20105;-65
2023/06/12 07:11:56;;;;;;;13.40;4.95;;;;;;;;;;5091378;28;20051;-65
2023/06/12 07:14:22;;;;;;;24.23;5.60;;;;;;;;;;5091919;28;20035;-65
2023/06/12 07:16:49;;;;;;;18.40;5.45;;;;;;;;;;5107078;28;20061;-65
2023/06/12 07:19:15;;;;;;;11.27;4.47;;;;;;;;;;5091844;28;20089;-65
2023/06/12 07:21:41;;;;;;;9.90;4.68;;;;;;;;;;5106897;28;20505;-65
2023/06/12 07:24:08;;;;;;;17.33;5.43;;;;;;;;;;5108306;28;20444;-65
2023/06/12 07:26:35;;;;;;;11.30;5.50;;;;;;;;;;5107835;28;20082;-65
2023/06/12 07:29:03;;;;;;;17.80;5.90;;;;;;;;;;5113278;27;20043;-65
2023/06/12 07:31:30;;;;;;;13.05;4.82;;;;;;;;;;5093572;27;20425;-62
2023/06/12 07:33:56;;;;;;;6.85;4.25;;;;;;;;;;5097452;27;20486;-65
2023/06/12 07:36:22;;;;;;;10.27;4.78;;;;;;;;;;5110083;27;20035;-65
2023/06/12 07:38:51;;;;;;;13.80;5.32;;;;;;;;;;5118350;27;20047;-66
2023/06/12 07:41:17;;;;;;;10.98;5.03;;;;;;;;;;5126558;27;20023;-65
2023/06/12 07:43:43;;;;;;;9.85;4.40;;;;;;;;;;5125818;27;20371;-65
2023/06/12 07:46:10;;;;;;;8.60;4.82;;;;;;;;;;5120244;27;20509;-65
2023/06/12 07:48:36;;;;;;;8.55;4.20;;;;;;;;;;5111461;27;20522;-66
2023/06/12 07:51:02;;;;;;;8.35;4.63;;;;;;;;;;5114460;27;20431;-66
2023/06/12 07:53:28;;;;;;;8.57;4.72;;;;;;;;;;5132685;27;20047;-66
2023/06/12 07:55:54;;;;;;;12.43;5.20;;;;;;;;;;5131378;27;20035;-66
2023/06/12 07:58:21;;;;;;;8.65;4.80;;;;;;;;;;5130091;27;20035;-66
2023/06/12 08:00:47;;;;;;;15.82;4.90;;;;;;;;;;5130677;27;20493;-66
2023/06/12 08:03:15;;;;;;;15.68;5.00;;;;;;;;;;5128091;27;20081;-67
2023/06/12 08:05:41;;;;;;;9.52;4.28;;;;;;;;;;5110093;27;20088;-66
2023/06/12 08:08:12;;;;;;;11.52;4.45;;;;;;;;;;5131512;27;20057;-66
2023/06/12 08:10:38;;;;;;;9.68;4.32;;;;;;;;;;5107376;28;20470;-66
2023/06/12 08:13:04;;;;;;;10.27;4.18;;;;;;;;;;5132298;27;20084;-66
2023/06/12 08:15:30;;;;;;;8.63;4.15;;;;;;;;;;5131406;27;20039;-66
2023/06/12 08:17:56;;;;;;;8.85;4.13;;;;;;;;;;5124734;27;20401;-66
2023/06/12 08:20:22;;;;;;;16.95;4.05;;;;;;;;;;5129832;27;20039;-66
2023/06/12 08:22:49;;;;;;;8.30;3.97;;;;;;;;;;5112098;28;20426;-66
2023/06/12 08:25:15;;;;;;;9.35;3.95;;;;;;;;;;5129807;27;20599;-66
2023/06/12 08:27:42;;;;;;;7.65;3.80;;;;;;;;;;5114913;28;20065;-66
2023/06/12 08:30:08;;;;;;;8.02;3.78;;;;;;;;;;5116599;28;20055;-67
2023/06/12 08:32:36;;;;;;;6.07;3.97;;;;;;;;;;5125693;27;21894;-67
2023/06/12 08:35:03;;;;;;;11.77;3.95;;;;;;;;;;5102634;28;20046;-66
2023/06/12 08:37:29;;;;;;;12.02;4.03;;;;;;;;;;5113299;28;20462;-66
2023/06/12 08:39:55;;;;;;;8.82;3.30;;;;;;;;;;5131773;27;20436;-67
2023/06/12 08:42:22;;;;;;;7.80;3.70;;;;;;;;;;5132521;28;20043;-66
2023/06/12 08:44:48;;;;;;;8.80;3.55;;;;;;;;;;5108065;28;20474;-66
2023/06/12 08:47:14;;;;;;;10.90;3.80;;;;;;;;;;5107068;28;20067;-67
2023/06/12 08:49:40;;;;;;;11.00;3.60;;;;;;;;;;5123464;28;20047;-67
2023/06/12 08:52:07;;;;;;;15.32;3.95;;;;;;;;;;5105910;28;20070;-67
2023/06/12 08:54:34;;;;;;;6.28;2.72;;;;;;;;;;5138479;27;20039;-67
2023/06/12 08:57:01;;;;;;;9.23;3.30;;;;;;;;;;5127363;27;20043;-67
2023/06/12 08:59:27;;;;;;;8.07;2.95;;;;;;;;;;5131365;27;20470;-67
2023/06/12 09:01:55;;;;;;;9.00;3.15;;;;;;;;;;5126818;27;20096;-67
2023/06/12 09:04:30;;;;;;;8.88;3.20;;;;;;;;;;5129242;27;20126;-67
2023/06/12 09:07:03;;;;;;;6.45;3.85;;;;;;;;;;5123240;27;20494;-66
2023/06/12 09:09:37;;;;;;;8.77;3.42;;;;;;;;;;5105831;27;20035;-67
2023/06/12 09:12:03;;;;;;;8.50;3.20;;;;;;;;;;5127542;27;20043;-67
2023/06/12 09:14:34;;;;;;;7.10;3.58;;;;;;;;;;5113240;27;20064;-66
2023/06/12 09:17:00;;;;;;;7.75;3.20;;;;;;;;;;5121898;27;20042;-66
2023/06/12 09:19:28;;;;;;;6.68;3.70;;;;;;;;;;5115983;27;20135;-67
2023/06/12 09:21:55;;;;;;;6.63;3.25;;;;;;;;;;5122527;27;20035;-66
2023/06/12 09:24:21;;;;;;;6.97;3.05;;;;;;;;;;5133259;27;20123;-66
2023/06/12 09:26:47;;;;;;;6.13;3.13;;;;;;;;;;5133004;27;20062;-67
2023/06/12 09:29:14;;;;;;;11.00;3.40;;;;;;;;;;5107962;28;20044;-67
2023/06/12 09:31:43;;;;;;;7.00;3.20;;;;;;;;;;5112847;28;20538;-66
2023/06/12 09:34:11;;;;;;;7.95;3.88;;;;;;;;;;5101551;28;20043;-66
2023/06/12 09:36:37;;;;;;;6.90;3.28;;;;;;;;;;5085598;28;20051;-66
2023/06/12 09:39:05;;;;;;;10.63;3.22;;;;;;;;;;5112066;28;20039;-66
2023/06/12 09:41:31;;;;;;;7.38;3.65;;;;;;;;;;5110785;28;20036;-67
2023/06/12 09:44:02;;;;;;;8.07;3.67;;;;;;;;;;5111776;28;20055;-67
2023/06/12 09:46:28;;;;;;;6.20;3.25;;;;;;;;;;5109726;28;20047;-67
2023/06/12 09:48:58;;;;;;;6.40;3.30;;;;;;;;;;5111567;28;20042;-67
2023/06/12 09:51:24;;;;;;;6.90;3.28;;;;;;;;;;5103532;28;20044;-67
2023/06/12 09:53:51;;;;;;;8.75;3.47;;;;;;;;;;5112808;28;20040;-67
2023/06/12 09:56:17;;;;;;;7.43;3.15;;;;;;;;;;5110794;28;20122;-67
2023/06/12 09:58:47;;;;;;;8.05;3.38;;;;;;;;;;5109139;28;20035;-67
2023/06/12 10:01:17;;;;;;;6.35;3.08;;;;;;;;;;5105459;28;20048;-67
2023/06/12 10:03:44;;;;;;;6.72;3.17;;;;;;;;;;5109281;28;20040;-67
2023/06/12 10:06:13;;;;;;;5.22;2.78;;;;;;;;;;5109635;28;20058;-67
2023/06/12 10:08:40;;;;;;;7.45;2.70;;;;;;;;;;5109001;28;20118;-67
2023/06/12 10:11:10;;;;;;;6.05;2.67;;;;;;;;;;5109474;28;20047;-67
2023/06/12 10:13:36;;;;;;;8.95;3.03;;;;;;;;;;5108020;27;20336;-67
2023/06/12 10:16:03;;;;;;;5.97;3.15;;;;;;;;;;5102956;28;20128;-67
2023/06/12 10:18:30;;;;;;;6.65;2.60;;;;;;;;;;5106504;28;20100;-67
2023/06/12 10:20:57;;;;;;;4.30;2.65;;;;;;;;;;5112193;28;20115;-67
2023/06/12 10:23:23;;;;;;;10.20;4.07;;;;;;;;;;5111532;28;20039;-67
2023/06/12 10:25:50;;;;;;;5.43;2.53;;;;;;;;;;5111835;28;20047;-67
2023/06/12 10:28:16;;;;;;;7.07;2.90;;;;;;;;;;5109265;28;20051;-67
2023/06/12 10:31:01;;;;;;;4.90;2.92;;;;;;;;;;5103327;28;20085;-67
2023/06/12 10:33:27;;;;;;;7.80;3.00;;;;;;;;;;5097134;28;20055;-67
2023/06/12 10:35:53;;;;;;;6.00;2.60;;;;;;;;;;5109951;28;20031;-67
2023/06/12 10:38:20;;;;;;;9.20;3.10;;;;;;;;;;5110062;28;20146;-67
2023/06/12 10:40:50;;;;;;;5.13;2.63;;;;;;;;;;5117553;27;20447;-67
2023/06/12 10:43:21;;;;;;;5.55;2.50;;;;;;;;;;5105372;28;20058;-67
2023/06/12 10:46:00;;;;;;;4.68;2.55;;;;;;;;;;5111951;28;20222;-67
2023/06/12 10:48:26;;;;;;;8.98;3.10;;;;;;;;;;5104919;28;20055;-67
2023/06/12 10:50:57;;;;;;;5.28;2.33;;;;;;;;;;5109888;28;20079;-67
2023/06/12 10:53:29;;;;;;;5.45;2.60;;;;;;;;;;5104872;28;20049;-67
2023/06/12 10:56:06;;;;;;;6.82;2.53;;;;;;;;;;5111139;28;20062;-76
2023/06/12 10:58:40;;;;;;;4.80;2.65;;;;;;;;;;5123218;27;20146;-64
2023/06/12 11:01:10;;;;;;;4.82;2.70;;;;;;;;;;5111080;28;20040;-64
2023/06/12 11:03:38;;;;;;;5.30;2.55;;;;;;;;;;5111162;28;20027;-66
2023/06/12 11:06:13;;;;;;;5.22;2.50;;;;;;;;;;5096277;28;20100;-66
2023/06/12 11:08:42;;;;;;;4.28;2.28;;;;;;;;;;5097671;28;20051;-66
2023/06/12 11:11:12;;;;;;;4.38;2.50;;;;;;;;;;5104185;28;20047;-67
2023/06/12 11:13:41;;;;;;;8.43;2.28;;;;;;;;;;5101277;28;20051;-67
2023/06/12 11:16:08;;;;;;;6.78;2.22;;;;;;;;;;5116850;27;20454;-68
2023/06/12 11:18:34;;;;;;;4.53;2.55;;;;;;;;;;5109804;28;20483;-67
2023/06/12 11:21:00;;;;;;;4.70;2.58;;;;;;;;;;5110489;28;20044;-67
2023/06/12 11:23:27;;;;;;;6.13;2.83;;;;;;;;;;5111249;28;20130;-67
2023/06/12 11:25:54;;;;;;;22.00;3.35;;;;;;;;;;5109440;28;20055;-67
2023/06/12 11:28:23;;;;;;;9.52;2.50;;;;;;;;;;5108756;28;20056;-66
2023/06/12 11:30:56;;;;;;;5.43;2.70;;;;;;;;;;5116608;27;20048;-66
2023/06/12 11:33:28;;;;;;;5.07;2.40;;;;;;;;;;5109358;28;20047;-67
2023/06/12 11:35:58;;;;;;;5.30;2.80;;;;;;;;;;5090222;28;20043;-67
2023/06/12 11:38:25;;;;;;;7.15;3.03;;;;;;;;;;5111006;28;20126;-67
2023/06/12 11:40:51;;;;;;;5.90;2.47;;;;;;;;;;5091786;28;20043;-67
2023/06/12 11:43:26;;;;;;;6.65;2.67;;;;;;;;;;5091083;28;20050;-67
2023/06/12 11:45:55;;;;;;;9.93;2.78;;;;;;;;;;5110550;28;20510;-67
2023/06/12 11:48:22;;;;;;;5.18;3.03;;;;;;;;;;5090131;28;20455;-67
2023/06/12 11:50:49;;;;;;;7.22;3.53;;;;;;;;;;5090564;28;20442;-67
2023/06/12 11:53:16;;;;;;;7.65;3.55;;;;;;;;;;5110261;28;20058;-67
2023/06/12 11:55:43;;;;;;;6.72;3.47;;;;;;;;;;5104789;28;20036;-67
2023/06/12 11:58:09;;;;;;;8.00;3.47;;;;;;;;;;5109502;28;20043;-67
2023/06/12 12:00:37;;;;;;;4.85;2.95;;;;;;;;;;5109902;28;20363;-67
2023/06/12 12:03:03;;;;;;;6.70;3.13;;;;;;;;;;5107992;28;20548;-67
2023/06/12 12:05:37;;;;;;;6.93;3.20;;;;;;;;;;5108546;28;20039;-67
2023/06/12 12:08:04;;;;;;;10.23;3.30;;;;;;;;;;5110863;27;20162;-67
2023/06/12 12:10:33;;;;;;;7.03;2.90;;;;;;;;;;5108516;28;20444;-70
2023/06/12 12:13:03;;;;;;;7.32;3.13;;;;;;;;;;5106894;28;20052;-69
2023/06/12 12:15:37;;;;;;;4.82;3.03;;;;;;;;;;5108093;28;20038;-69
2023/06/12 12:18:03;;;;;;;6.60;2.90;;;;;;;;;;5108529;28;20380;-70
2023/06/12 12:20:30;;;;;;;7.88;3.25;;;;;;;;;;5091455;28;20044;-70
2023/06/12 12:22:58;;;;;;;7.22;2.80;;;;;;;;;;5108301;28;20040;-70
2023/06/12 12:25:25;;;;;;;7.65;3.20;;;;;;;;;;5106231;28;20084;-70
2023/06/12 12:27:53;;;;;;;14.43;3.03;;;;;;;;;;5109863;28;20100;-70
2023/06/12 12:30:20;;;;;;;6.70;3.05;;;;;;;;;;5108245;28;20414;-70
2023/06/12 12:32:48;;;;;;;5.00;3.10;;;;;;;;;;5111480;28;20051;-70
2023/06/12 12:35:15;;;;;;;6.40;3.45;;;;;;;;;;5112761;28;20135;-69
2023/06/12 12:37:41;;;;;;;9.25;3.30;;;;;;;;;;5109430;27;20546;-70
2023/06/12 12:40:10;;;;;;;6.10;3.22;;;;;;;;;;5095509;28;20130;-70
2023/06/12 12:42:37;;;;;;;6.32;3.20;;;;;;;;;;5113675;28;20040;-70
2023/06/12 12:45:03;;;;;;;6.35;3.42;;;;;;;;;;5112623;27;20039;-69
2023/06/12 12:47:29;;;;;;;5.63;3.42;;;;;;;;;;5113362;28;20048;-69
2023/06/12 12:49:56;;;;;;;6.75;2.70;;;;;;;;;;5113511;28;20028;-70
2023/06/12 12:52:22;;;;;;;6.22;2.97;;;;;;;;;;5112508;28;20079;-70
2023/06/12 12:54:48;;;;;;;8.52;3.03;;;;;;;;;;5095412;28;20052;-69
2023/06/12 12:57:14;;;;;;;5.80;3.10;;;;;;;;;;5111649;28;20039;-70
2023/06/12 12:59:41;;;;;;;5.32;2.70;;;;;;;;;;5115994;28;20054;-69
2023/06/12 13:02:07;;;;;;;5.88;3.05;;;;;;;;;;5096089;28;20386;-69
2023/06/12 13:04:33;;;;;;;7.35;3.05;;;;;;;;;;5113737;28;20491;-70
2023/06/12 13:06:59;;;;;;;5.63;3.05;;;;;;;;;;5114826;28;20047;-69
2023/06/12 13:09:26;;;;;;;4.55;3.00;;;;;;;;;;5114469;28;20123;-70
2023/06/12 13:11:52;;;;;;;5.63;3.08;;;;;;;;;;5111567;27;20104;-70
2023/06/12 13:14:18;;;;;;;4.53;2.88;;;;;;;;;;5108792;28;20475;-70
2023/06/12 13:16:45;;;;;;;5.43;2.70;;;;;;;;;;5110052;28;20043;-70
2023/06/12 13:19:13;;;;;;;7.18;3.60;;;;;;;;;;5106797;28;20038;-70
2023/06/12 13:21:39;;;;;;;5.93;3.20;;;;;;;;;;5111606;28;20055;-70
2023/06/12 13:24:06;;;;;;;5.53;3.33;;;;;;;;;;5111769;28;20062;-70
2023/06/12 13:26:32;;;;;;;9.98;3.28;;;;;;;;;;5093158;28;20122;-70
2023/06/12 13:28:58;;;;;;;7.47;3.78;;;;;;;;;;5092829;28;20100;-70
2023/06/12 13:31:28;;;;;;;6.07;3.40;;;;;;;;;;5111371;27;20053;-69
2023/06/12 13:33:55;;;;;;;6.43;3.22;;;;;;;;;;5092440;28;20092;-70
2023/06/12 13:36:23;;;;;;;8.13;3.80;;;;;;;;;;5092947;28;20039;-70
2023/06/12 13:38:49;;;;;;;7.72;3.65;;;;;;;;;;5112741;28;20047;-70
2023/06/12 13:41:16;;;;;;;8.40;3.58;;;;;;;;;;5110687;27;20043;-66
2023/06/12 13:43:42;;;;;;;8.70;3.53;;;;;;;;;;5089484;28;20475;-70
2023/06/12 13:46:09;;;;;;;7.53;3.92;;;;;;;;;;5111026;28;20050;-70
2023/06/12 13:48:35;;;;;;;9.20;3.88;;;;;;;;;;5070721;28;20055;-70
2023/06/12 13:51:02;;;;;;;6.57;4.30;;;;;;;;;;5111335;28;20124;-70
2023/06/12 13:53:28;;;;;;;9.05;4.10;;;;;;;;;;5104108;28;20047;-70
2023/06/12 13:55:55;;;;;;;7.90;4.18;;;;;;;;;;5092618;28;20522;-69
2023/06/12 13:58:21;;;;;;;7.10;3.88;;;;;;;;;;5107921;28;20035;-70
2023/06/12 14:00:50;;;;;;;7.65;4.40;;;;;;;;;;5093684;28;20095;-70
2023/06/12 14:03:16;;;;;;;7.57;4.25;;;;;;;;;;5111660;27;20028;-70
2023/06/12 14:05:42;;;;;;;10.95;5.03;;;;;;;;;;5108723;28;20047;-69
2023/06/12 14:08:09;;;;;;;10.25;3.97;;;;;;;;;;5105930;28;20406;-70
2023/06/12 14:10:38;;;;;;;10.95;4.57;;;;;;;;;;5109343;28;20039;-69
2023/06/12 14:13:10;;;;;;;10.57;4.15;;;;;;;;;;5112351;28;20067;-70
2023/06/12 14:15:36;;;;;;;8.48;4.32;;;;;;;;;;5086013;28;20361;-70
2023/06/12 14:18:03;;;;;;;9.88;4.50;;;;;;;;;;5111158;28;20112;-69
2023/06/12 14:20:30;;;;;;;11.93;4.80;;;;;;;;;;5089571;28;20051;-69
2023/06/12 14:22:58;;;;;;;8.57;4.88;;;;;;;;;;5109636;28;20046;-70
2023/06/12 14:25:25;;;;;;;8.35;4.75;;;;;;;;;;5098022;28;20044;-70
2023/06/12 14:27:51;;;;;;;11.60;5.00;;;;;;;;;;5111519;28;20062;-70
2023/06/12 14:30:17;;;;;;;8.82;4.50;;;;;;;;;;5126098;27;20511;-70
2023/06/12 14:32:43;;;;;;;12.48;4.78;;;;;;;;;;5113696;27;20436;-70
2023/06/12 14:35:09;;;;;;;8.90;4.82;;;;;;;;;;5113975;27;20039;-70
2023/06/12 14:37:35;;;;;;;9.05;4.72;;;;;;;;;;5129960;27;20126;-70
2023/06/12 14:40:03;;;;;;;9.05;4.75;;;;;;;;;;5130760;27;20050;-70
2023/06/12 14:42:29;;;;;;;10.95;4.78;;;;;;;;;;5130825;27;20054;-70
2023/06/12 14:44:55;;;;;;;7.70;5.03;;;;;;;;;;5112232;27;20348;-70
2023/06/12 14:47:21;;;;;;;9.35;4.63;;;;;;;;;;5113635;27;20118;-70